sensor_id;sensor_type;location;lat;lon;timestamp;P1;durP1;ratioP1;P2;durP2;ratioP2
57567;SDS011;43403;51.948;5.922;2023-08-20T00:02:26;10.38;;;5.97;;
57567;SDS011;43403;51.948;5.922;2023-08-20T00:04:57;9.73;;;5.85;;
57567;SDS011;43403;51.948;5.922;2023-08-20T00:07:25;12.80;;;6.43;;
57567;SDS011;43403;51.948;5.922;2023-08-20T00:09:51;9.63;;;5.90;;
57567;SDS011;43403;51.948;5.922;2023-08-20T00:12:18;12.93;;;6.15;;
57567;SDS011;43403;51.948;5.922;2023-08-20T00:17:24;10.68;;;6.10;;
57567;SDS011;43403;51.948;5.922;2023-08-20T00:19:54;13.25;;;6.53;;
57567;SDS011;43403;51.948;5.922;2023-08-20T00:22:24;9.75;;;5.30;;
57567;SDS011;43403;51.948;5.922;2023-08-20T00:24:52;8.98;;;5.18;;
57567;SDS011;43403;51.948;5.922;2023-08-20T00:29:46;9.88;;;5.82;;
57567;SDS011;43403;51.948;5.922;2023-08-20T00:32:14;10.88;;;6.35;;
57567;SDS011;43403;51.948;5.922;2023-08-20T00:34:41;9.70;;;6.45;;
57567;SDS011;43403;51.948;5.922;2023-08-20T00:37:08;10.73;;;6.32;;
57567;SDS011;43403;51.948;5.922;2023-08-20T00:39:34;12.75;;;5.90;;
57567;SDS011;43403;51.948;5.922;2023-08-20T00:42:00;15.05;;;6.10;;
57567;SDS011;43403;51.948;5.922;2023-08-20T00:44:27;8.85;;;5.28;;
57567;SDS011;43403;51.948;5.922;2023-08-20T00:46:54;12.43;;;6.18;;
57567;SDS011;43403;51.948;5.922;2023-08-20T00:49:21;12.57;;;5.60;;
57567;SDS011;43403;51.948;5.922;2023-08-20T00:51:48;11.80;;;5.80;;
57567;SDS011;43403;51.948;5.922;2023-08-20T00:54:16;9.57;;;5.82;;
57567;SDS011;43403;51.948;5.922;2023-08-20T00:56:43;9.75;;;6.07;;
57567;SDS011;43403;51.948;5.922;2023-08-20T00:59:11;12.88;;;6.15;;
57567;SDS011;43403;51.948;5.922;2023-08-20T01:01:37;10.63;;;5.68;;
57567;SDS011;43403;51.948;5.922;2023-08-20T01:04:04;10.23;;;6.50;;
57567;SDS011;43403;51.948;5.922;2023-08-20T01:06:35;12.45;;;6.38;;
57567;SDS011;43403;51.948;5.922;2023-08-20T01:09:21;10.57;;;6.35;;
57567;SDS011;43403;51.948;5.922;2023-08-20T01:11:57;11.07;;;6.85;;
57567;SDS011;43403;51.948;5.922;2023-08-20T01:14:26;11.20;;;6.47;;
57567;SDS011;43403;51.948;5.922;2023-08-20T01:16:52;13.80;;;6.40;;
57567;SDS011;43403;51.948;5.922;2023-08-20T01:19:20;9.88;;;6.30;;
57567;SDS011;43403;51.948;5.922;2023-08-20T01:30:17;11.40;;;6.45;;
57567;SDS011;43403;51.948;5.922;2023-08-20T01:32:47;12.18;;;6.35;;
57567;SDS011;43403;51.948;5.922;2023-08-20T01:35:17;11.75;;;6.65;;
57567;SDS011;43403;51.948;5.922;2023-08-20T01:37:44;15.57;;;7.23;;
57567;SDS011;43403;51.948;5.922;2023-08-20T01:40:11;11.23;;;6.82;;
57567;SDS011;43403;51.948;5.922;2023-08-20T01:42:38;12.90;;;6.72;;
57567;SDS011;43403;51.948;5.922;2023-08-20T01:45:06;12.80;;;7.10;;
57567;SDS011;43403;51.948;5.922;2023-08-20T01:47:33;9.93;;;6.25;;
57567;SDS011;43403;51.948;5.922;2023-08-20T01:50:00;10.82;;;6.57;;
57567;SDS011;43403;51.948;5.922;2023-08-20T01:52:31;12.82;;;7.00;;
57567;SDS011;43403;51.948;5.922;2023-08-20T01:54:57;11.07;;;5.97;;
57567;SDS011;43403;51.948;5.922;2023-08-20T01:57:24;10.95;;;6.35;;
57567;SDS011;43403;51.948;5.922;2023-08-20T01:59:50;10.43;;;6.18;;
57567;SDS011;43403;51.948;5.922;2023-08-20T02:02:17;8.82;;;6.05;;
57567;SDS011;43403;51.948;5.922;2023-08-20T02:04:43;14.20;;;6.78;;
57567;SDS011;43403;51.948;5.922;2023-08-20T02:07:10;9.98;;;7.20;;
57567;SDS011;43403;51.948;5.922;2023-08-20T02:09:36;10.73;;;6.30;;
57567;SDS011;43403;51.948;5.922;2023-08-20T02:12:03;11.75;;;6.85;;
57567;SDS011;43403;51.948;5.922;2023-08-20T02:14:30;11.50;;;7.18;;
57567;SDS011;43403;51.948;5.922;2023-08-20T02:17:01;14.35;;;7.10;;
57567;SDS011;43403;51.948;5.922;2023-08-20T02:19:28;12.18;;;6.78;;
57567;SDS011;43403;51.948;5.922;2023-08-20T02:21:55;10.13;;;6.72;;
57567;SDS011;43403;51.948;5.922;2023-08-20T02:24:21;12.80;;;7.20;;
57567;SDS011;43403;51.948;5.922;2023-08-20T02:26:48;13.60;;;7.13;;
57567;SDS011;43403;51.948;5.922;2023-08-20T02:29:14;13.45;;;7.57;;
57567;SDS011;43403;51.948;5.922;2023-08-20T02:31:41;12.65;;;7.40;;
57567;SDS011;43403;51.948;5.922;2023-08-20T02:34:08;12.90;;;7.35;;
57567;SDS011;43403;51.948;5.922;2023-08-20T02:36:34;12.40;;;7.40;;
57567;SDS011;43403;51.948;5.922;2023-08-20T02:39:00;12.10;;;7.15;;
57567;SDS011;43403;51.948;5.922;2023-08-20T02:41:27;11.38;;;7.55;;
57567;SDS011;43403;51.948;5.922;2023-08-20T02:43:53;11.38;;;6.70;;
57567;SDS011;43403;51.948;5.922;2023-08-20T02:46:20;12.10;;;6.07;;
57567;SDS011;43403;51.948;5.922;2023-08-20T02:48:46;12.70;;;7.20;;
57567;SDS011;43403;51.948;5.922;2023-08-20T02:51:13;12.93;;;6.82;;
57567;SDS011;43403;51.948;5.922;2023-08-20T02:53:39;17.38;;;7.43;;
57567;SDS011;43403;51.948;5.922;2023-08-20T02:56:06;12.73;;;7.40;;
57567;SDS011;43403;51.948;5.922;2023-08-20T02:58:32;13.45;;;7.82;;
57567;SDS011;43403;51.948;5.922;2023-08-20T03:00:59;15.18;;;7.85;;
57567;SDS011;43403;51.948;5.922;2023-08-20T03:03:25;9.88;;;7.40;;
57567;SDS011;43403;51.948;5.922;2023-08-20T03:05:51;12.90;;;6.65;;
57567;SDS011;43403;51.948;5.922;2023-08-20T03:08:18;17.15;;;8.35;;
57567;SDS011;43403;51.948;5.922;2023-08-20T03:10:45;12.25;;;7.22;;
57567;SDS011;43403;51.948;5.922;2023-08-20T03:13:11;11.95;;;7.70;;
57567;SDS011;43403;51.948;5.922;2023-08-20T03:15:37;9.32;;;6.50;;
57567;SDS011;43403;51.948;5.922;2023-08-20T03:18:04;11.98;;;7.65;;
57567;SDS011;43403;51.948;5.922;2023-08-20T03:20:32;11.25;;;7.90;;
57567;SDS011;43403;51.948;5.922;2023-08-20T03:22:58;12.93;;;7.88;;
57567;SDS011;43403;51.948;5.922;2023-08-20T03:25:24;10.88;;;6.82;;
57567;SDS011;43403;51.948;5.922;2023-08-20T03:27:51;11.65;;;7.40;;
57567;SDS011;43403;51.948;5.922;2023-08-20T03:30:18;13.90;;;7.25;;
57567;SDS011;43403;51.948;5.922;2023-08-20T03:32:44;10.88;;;7.45;;
57567;SDS011;43403;51.948;5.922;2023-08-20T03:35:11;11.30;;;7.60;;
57567;SDS011;43403;51.948;5.922;2023-08-20T03:37:37;14.50;;;7.65;;
57567;SDS011;43403;51.948;5.922;2023-08-20T03:40:04;10.27;;;7.38;;
57567;SDS011;43403;51.948;5.922;2023-08-20T03:42:31;13.65;;;8.25;;
57567;SDS011;43403;51.948;5.922;2023-08-20T03:44:57;13.88;;;7.40;;
57567;SDS011;43403;51.948;5.922;2023-08-20T03:47:24;15.10;;;7.28;;
57567;SDS011;43403;51.948;5.922;2023-08-20T03:49:50;9.52;;;7.05;;
57567;SDS011;43403;51.948;5.922;2023-08-20T03:52:17;8.77;;;6.93;;
57567;SDS011;43403;51.948;5.922;2023-08-20T03:54:43;11.10;;;7.10;;
57567;SDS011;43403;51.948;5.922;2023-08-20T03:57:11;11.82;;;7.40;;
57567;SDS011;43403;51.948;5.922;2023-08-20T03:59:37;12.20;;;7.90;;
57567;SDS011;43403;51.948;5.922;2023-08-20T04:02:04;12.45;;;7.15;;
57567;SDS011;43403;51.948;5.922;2023-08-20T04:04:30;11.45;;;7.53;;
57567;SDS011;43403;51.948;5.922;2023-08-20T04:06:57;11.13;;;7.10;;
57567;SDS011;43403;51.948;5.922;2023-08-20T04:09:24;12.40;;;6.97;;
57567;SDS011;43403;51.948;5.922;2023-08-20T04:11:51;10.70;;;6.68;;
57567;SDS011;43403;51.948;5.922;2023-08-20T04:14:17;11.98;;;6.80;;
57567;SDS011;43403;51.948;5.922;2023-08-20T04:16:43;13.18;;;6.85;;
57567;SDS011;43403;51.948;5.922;2023-08-20T04:19:10;11.77;;;6.53;;
57567;SDS011;43403;51.948;5.922;2023-08-20T04:21:36;13.65;;;6.88;;
57567;SDS011;43403;51.948;5.922;2023-08-20T04:24:03;11.43;;;7.93;;
57567;SDS011;43403;51.948;5.922;2023-08-20T04:26:30;11.20;;;7.70;;
57567;SDS011;43403;51.948;5.922;2023-08-20T04:28:56;11.00;;;7.45;;
57567;SDS011;43403;51.948;5.922;2023-08-20T04:31:23;15.13;;;7.38;;
57567;SDS011;43403;51.948;5.922;2023-08-20T04:33:49;13.23;;;7.55;;
57567;SDS011;43403;51.948;5.922;2023-08-20T04:36:16;13.10;;;6.68;;
57567;SDS011;43403;51.948;5.922;2023-08-20T04:38:42;12.20;;;6.72;;
57567;SDS011;43403;51.948;5.922;2023-08-20T04:41:09;12.35;;;7.15;;
57567;SDS011;43403;51.948;5.922;2023-08-20T04:43:35;11.35;;;6.88;;
57567;SDS011;43403;51.948;5.922;2023-08-20T04:46:02;10.50;;;6.57;;
57567;SDS011;43403;51.948;5.922;2023-08-20T04:48:28;9.27;;;6.78;;
57567;SDS011;43403;51.948;5.922;2023-08-20T04:50:54;14.13;;;7.30;;
57567;SDS011;43403;51.948;5.922;2023-08-20T04:53:21;12.40;;;7.00;;
57567;SDS011;43403;51.948;5.922;2023-08-20T04:55:47;10.95;;;6.80;;
57567;SDS011;43403;51.948;5.922;2023-08-20T04:58:14;10.73;;;6.03;;
57567;SDS011;43403;51.948;5.922;2023-08-20T05:00:40;10.40;;;6.10;;
57567;SDS011;43403;51.948;5.922;2023-08-20T05:03:08;8.50;;;5.85;;
57567;SDS011;43403;51.948;5.922;2023-08-20T05:05:34;10.20;;;5.95;;
57567;SDS011;43403;51.948;5.922;2023-08-20T05:08:01;9.40;;;6.50;;
57567;SDS011;43403;51.948;5.922;2023-08-20T05:10:27;10.88;;;6.57;;
57567;SDS011;43403;51.948;5.922;2023-08-20T05:12:54;7.95;;;5.75;;
57567;SDS011;43403;51.948;5.922;2023-08-20T05:15:20;11.05;;;5.80;;
57567;SDS011;43403;51.948;5.922;2023-08-20T05:17:47;11.10;;;6.20;;
57567;SDS011;43403;51.948;5.922;2023-08-20T05:20:14;10.13;;;6.47;;
57567;SDS011;43403;51.948;5.922;2023-08-20T05:22:41;10.52;;;6.50;;
57567;SDS011;43403;51.948;5.922;2023-08-20T05:25:07;9.77;;;6.05;;
57567;SDS011;43403;51.948;5.922;2023-08-20T05:27:34;11.32;;;6.10;;
57567;SDS011;43403;51.948;5.922;2023-08-20T05:30:03;13.30;;;5.90;;
57567;SDS011;43403;51.948;5.922;2023-08-20T05:32:30;9.65;;;5.93;;
57567;SDS011;43403;51.948;5.922;2023-08-20T05:34:57;10.77;;;5.95;;
57567;SDS011;43403;51.948;5.922;2023-08-20T05:37:23;11.43;;;6.93;;
57567;SDS011;43403;51.948;5.922;2023-08-20T05:39:50;13.20;;;8.13;;
57567;SDS011;43403;51.948;5.922;2023-08-20T05:42:16;19.77;;;10.48;;
57567;SDS011;43403;51.948;5.922;2023-08-20T05:44:43;15.55;;;10.45;;
57567;SDS011;43403;51.948;5.922;2023-08-20T05:47:09;16.20;;;11.10;;
57567;SDS011;43403;51.948;5.922;2023-08-20T05:49:36;13.95;;;10.43;;
57567;SDS011;43403;51.948;5.922;2023-08-20T05:52:02;14.23;;;10.30;;
57567;SDS011;43403;51.948;5.922;2023-08-20T05:54:29;15.75;;;10.48;;
57567;SDS011;43403;51.948;5.922;2023-08-20T05:56:57;14.85;;;9.23;;
57567;SDS011;43403;51.948;5.922;2023-08-20T05:59:24;11.98;;;7.90;;
57567;SDS011;43403;51.948;5.922;2023-08-20T06:01:52;12.75;;;10.00;;
57567;SDS011;43403;51.948;5.922;2023-08-20T06:04:19;12.60;;;9.38;;
57567;SDS011;43403;51.948;5.922;2023-08-20T06:06:46;18.27;;;11.02;;
57567;SDS011;43403;51.948;5.922;2023-08-20T06:09:12;16.45;;;10.23;;
57567;SDS011;43403;51.948;5.922;2023-08-20T06:11:39;14.43;;;9.77;;
57567;SDS011;43403;51.948;5.922;2023-08-20T06:14:05;16.30;;;8.57;;
57567;SDS011;43403;51.948;5.922;2023-08-20T06:16:32;13.32;;;8.18;;
57567;SDS011;43403;51.948;5.922;2023-08-20T06:18:58;12.98;;;8.25;;
57567;SDS011;43403;51.948;5.922;2023-08-20T06:21:28;20.70;;;8.13;;
57567;SDS011;43403;51.948;5.922;2023-08-20T06:23:54;15.32;;;7.47;;
57567;SDS011;43403;51.948;5.922;2023-08-20T06:26:21;9.75;;;5.57;;
57567;SDS011;43403;51.948;5.922;2023-08-20T06:28:48;14.95;;;6.05;;
57567;SDS011;43403;51.948;5.922;2023-08-20T06:31:14;14.30;;;6.07;;
57567;SDS011;43403;51.948;5.922;2023-08-20T06:33:41;13.95;;;5.85;;
57567;SDS011;43403;51.948;5.922;2023-08-20T06:36:07;14.50;;;5.45;;
57567;SDS011;43403;51.948;5.922;2023-08-20T06:38:34;14.27;;;5.10;;
57567;SDS011;43403;51.948;5.922;2023-08-20T06:41:00;15.00;;;5.65;;
57567;SDS011;43403;51.948;5.922;2023-08-20T06:43:27;9.73;;;4.85;;
57567;SDS011;43403;51.948;5.922;2023-08-20T06:45:53;10.55;;;4.75;;
57567;SDS011;43403;51.948;5.922;2023-08-20T06:48:19;14.63;;;4.82;;
57567;SDS011;43403;51.948;5.922;2023-08-20T06:50:48;14.23;;;4.75;;
57567;SDS011;43403;51.948;5.922;2023-08-20T06:53:14;14.60;;;4.78;;
57567;SDS011;43403;51.948;5.922;2023-08-20T06:55:41;16.88;;;4.50;;
57567;SDS011;43403;51.948;5.922;2023-08-20T06:58:07;11.75;;;4.28;;
57567;SDS011;43403;51.948;5.922;2023-08-20T07:00:34;11.65;;;3.75;;
57567;SDS011;43403;51.948;5.922;2023-08-20T07:03:00;14.05;;;4.43;;
57567;SDS011;43403;51.948;5.922;2023-08-20T07:05:27;14.45;;;4.78;;
57567;SDS011;43403;51.948;5.922;2023-08-20T07:07:53;8.55;;;3.58;;
57567;SDS011;43403;51.948;5.922;2023-08-20T07:10:20;8.18;;;3.85;;
57567;SDS011;43403;51.948;5.922;2023-08-20T07:12:46;13.98;;;3.25;;
57567;SDS011;43403;51.948;5.922;2023-08-20T07:15:13;8.25;;;3.33;;
57567;SDS011;43403;51.948;5.922;2023-08-20T07:17:39;10.80;;;3.30;;
57567;SDS011;43403;51.948;5.922;2023-08-20T07:20:07;14.23;;;3.10;;
57567;SDS011;43403;51.948;5.922;2023-08-20T07:22:33;10.48;;;2.58;;
57567;SDS011;43403;51.948;5.922;2023-08-20T07:25:00;9.55;;;3.08;;
57567;SDS011;43403;51.948;5.922;2023-08-20T07:27:26;11.15;;;3.30;;
57567;SDS011;43403;51.948;5.922;2023-08-20T07:29:53;10.85;;;2.47;;
57567;SDS011;43403;51.948;5.922;2023-08-20T07:32:19;10.88;;;2.95;;
57567;SDS011;43403;51.948;5.922;2023-08-20T07:34:46;10.15;;;2.55;;
57567;SDS011;43403;51.948;5.922;2023-08-20T07:37:12;7.93;;;2.13;;
57567;SDS011;43403;51.948;5.922;2023-08-20T07:39:38;6.90;;;2.47;;
57567;SDS011;43403;51.948;5.922;2023-08-20T07:42:06;7.10;;;1.95;;
57567;SDS011;43403;51.948;5.922;2023-08-20T07:44:32;6.57;;;2.10;;
57567;SDS011;43403;51.948;5.922;2023-08-20T07:46:59;5.72;;;2.15;;
57567;SDS011;43403;51.948;5.922;2023-08-20T07:49:25;9.48;;;2.55;;
57567;SDS011;43403;51.948;5.922;2023-08-20T07:51:52;8.02;;;2.70;;
57567;SDS011;43403;51.948;5.922;2023-08-20T07:54:20;7.13;;;2.42;;
57567;SDS011;43403;51.948;5.922;2023-08-20T07:56:47;7.93;;;2.70;;
57567;SDS011;43403;51.948;5.922;2023-08-20T07:59:13;8.98;;;2.50;;
57567;SDS011;43403;51.948;5.922;2023-08-20T08:01:39;7.65;;;2.78;;
57567;SDS011;43403;51.948;5.922;2023-08-20T08:04:06;8.52;;;2.35;;
57567;SDS011;43403;51.948;5.922;2023-08-20T08:06:33;8.27;;;2.45;;
57567;SDS011;43403;51.948;5.922;2023-08-20T08:09:14;9.02;;;2.38;;
57567;SDS011;43403;51.948;5.922;2023-08-20T08:11:44;6.18;;;2.03;;
57567;SDS011;43403;51.948;5.922;2023-08-20T08:14:10;7.35;;;2.47;;
57567;SDS011;43403;51.948;5.922;2023-08-20T08:16:38;8.75;;;2.08;;
57567;SDS011;43403;51.948;5.922;2023-08-20T08:19:04;9.23;;;2.17;;
57567;SDS011;43403;51.948;5.922;2023-08-20T08:21:31;9.18;;;2.05;;
57567;SDS011;43403;51.948;5.922;2023-08-20T08:23:57;6.68;;;2.08;;
57567;SDS011;43403;51.948;5.922;2023-08-20T08:26:24;9.88;;;2.78;;
57567;SDS011;43403;51.948;5.922;2023-08-20T08:28:50;12.80;;;3.45;;
57567;SDS011;43403;51.948;5.922;2023-08-20T08:31:16;8.27;;;2.17;;
57567;SDS011;43403;51.948;5.922;2023-08-20T08:33:43;9.05;;;2.60;;
57567;SDS011;43403;51.948;5.922;2023-08-20T08:36:09;13.43;;;2.85;;
57567;SDS011;43403;51.948;5.922;2023-08-20T08:38:37;7.90;;;2.88;;
57567;SDS011;43403;51.948;5.922;2023-08-20T08:41:04;7.38;;;1.95;;
57567;SDS011;43403;51.948;5.922;2023-08-20T08:43:35;3.88;;;1.50;;
57567;SDS011;43403;51.948;5.922;2023-08-20T08:46:07;9.45;;;1.45;;
57567;SDS011;43403;51.948;5.922;2023-08-20T08:48:42;5.55;;;1.30;;
57567;SDS011;43403;51.948;5.922;2023-08-20T08:51:11;3.90;;;1.13;;
57567;SDS011;43403;51.948;5.922;2023-08-20T08:53:38;5.15;;;1.20;;
57567;SDS011;43403;51.948;5.922;2023-08-20T08:56:05;6.70;;;1.48;;
57567;SDS011;43403;51.948;5.922;2023-08-20T08:58:34;3.35;;;1.10;;
57567;SDS011;43403;51.948;5.922;2023-08-20T09:01:01;3.65;;;1.08;;
57567;SDS011;43403;51.948;5.922;2023-08-20T09:03:28;4.97;;;1.37;;
57567;SDS011;43403;51.948;5.922;2023-08-20T09:05:56;5.30;;;1.30;;
57567;SDS011;43403;51.948;5.922;2023-08-20T09:08:26;6.18;;;1.55;;
57567;SDS011;43403;51.948;5.922;2023-08-20T09:10:55;7.13;;;1.40;;
57567;SDS011;43403;51.948;5.922;2023-08-20T09:13:25;5.32;;;1.30;;
57567;SDS011;43403;51.948;5.922;2023-08-20T09:15:59;5.72;;;1.02;;
57567;SDS011;43403;51.948;5.922;2023-08-20T09:18:26;7.88;;;1.40;;
57567;SDS011;43403;51.948;5.922;2023-08-20T09:20:52;4.43;;;1.20;;
57567;SDS011;43403;51.948;5.922;2023-08-20T09:23:18;5.72;;;1.42;;
57567;SDS011;43403;51.948;5.922;2023-08-20T09:25:45;2.42;;;1.27;;
57567;SDS011;43403;51.948;5.922;2023-08-20T09:28:12;5.47;;;1.20;;
57567;SDS011;43403;51.948;5.922;2023-08-20T09:30:40;3.45;;;1.30;;
57567;SDS011;43403;51.948;5.922;2023-08-20T09:33:20;6.30;;;1.27;;
57567;SDS011;43403;51.948;5.922;2023-08-20T09:35:50;3.90;;;1.30;;
57567;SDS011;43403;51.948;5.922;2023-08-20T09:38:20;4.13;;;1.30;;
57567;SDS011;43403;51.948;5.922;2023-08-20T09:40:48;5.40;;;1.10;;
57567;SDS011;43403;51.948;5.922;2023-08-20T09:43:16;6.68;;;1.25;;
57567;SDS011;43403;51.948;5.922;2023-08-20T09:45:43;7.38;;;3.85;;
57567;SDS011;43403;51.948;5.922;2023-08-20T09:48:13;8.75;;;2.53;;
57567;SDS011;43403;51.948;5.922;2023-08-20T09:50:46;4.18;;;1.30;;
57567;SDS011;43403;51.948;5.922;2023-08-20T09:55:58;4.15;;;1.02;;
57567;SDS011;43403;51.948;5.922;2023-08-20T09:58:36;3.92;;;1.00;;
57567;SDS011;43403;51.948;5.922;2023-08-20T10:01:04;2.92;;;1.30;;
57567;SDS011;43403;51.948;5.922;2023-08-20T10:03:33;4.28;;;1.20;;
57567;SDS011;43403;51.948;5.922;2023-08-20T10:06:00;3.30;;;1.05;;
57567;SDS011;43403;51.948;5.922;2023-08-20T10:08:27;3.95;;;1.42;;
57567;SDS011;43403;51.948;5.922;2023-08-20T10:10:54;3.33;;;1.02;;
57567;SDS011;43403;51.948;5.922;2023-08-20T10:13:21;4.03;;;1.60;;
57567;SDS011;43403;51.948;5.922;2023-08-20T10:15:48;4.82;;;1.50;;
57567;SDS011;43403;51.948;5.922;2023-08-20T10:18:15;4.40;;;1.38;;
57567;SDS011;43403;51.948;5.922;2023-08-20T10:20:41;3.17;;;1.10;;
57567;SDS011;43403;51.948;5.922;2023-08-20T10:23:08;1.38;;;0.60;;
57567;SDS011;43403;51.948;5.922;2023-08-20T10:25:41;4.25;;;1.02;;
57567;SDS011;43403;51.948;5.922;2023-08-20T10:28:22;2.42;;;0.90;;
57567;SDS011;43403;51.948;5.922;2023-08-20T10:33:35;2.00;;;0.80;;
57567;SDS011;43403;51.948;5.922;2023-08-20T10:36:09;4.10;;;0.80;;
57567;SDS011;43403;51.948;5.922;2023-08-20T10:38:39;2.10;;;0.70;;
57567;SDS011;43403;51.948;5.922;2023-08-20T10:41:06;2.92;;;0.90;;
57567;SDS011;43403;51.948;5.922;2023-08-20T10:43:35;3.17;;;0.88;;
57567;SDS011;43403;51.948;5.922;2023-08-20T10:46:24;2.47;;;1.35;;
57567;SDS011;43403;51.948;5.922;2023-08-20T10:48:54;16.63;;;13.15;;
57567;SDS011;43403;51.948;5.922;2023-08-20T10:54:05;6.15;;;4.32;;
57567;SDS011;43403;51.948;5.922;2023-08-20T10:59:21;3.90;;;1.08;;
57567;SDS011;43403;51.948;5.922;2023-08-20T11:01:49;3.65;;;0.93;;
57567;SDS011;43403;51.948;5.922;2023-08-20T11:04:17;5.95;;;1.10;;
57567;SDS011;43403;51.948;5.922;2023-08-20T11:06:46;4.13;;;1.00;;
57567;SDS011;43403;51.948;5.922;2023-08-20T11:09:15;3.97;;;1.20;;
57567;SDS011;43403;51.948;5.922;2023-08-20T11:11:42;5.10;;;1.20;;
57567;SDS011;43403;51.948;5.922;2023-08-20T11:14:14;3.47;;;0.95;;
57567;SDS011;43403;51.948;5.922;2023-08-20T11:16:42;4.35;;;1.10;;
57567;SDS011;43403;51.948;5.922;2023-08-20T11:19:12;5.03;;;1.30;;
57567;SDS011;43403;51.948;5.922;2023-08-20T11:21:40;4.57;;;1.20;;
57567;SDS011;43403;51.948;5.922;2023-08-20T11:24:08;3.47;;;1.10;;
57567;SDS011;43403;51.948;5.922;2023-08-20T11:26:36;6.07;;;1.35;;
57567;SDS011;43403;51.948;5.922;2023-08-20T11:29:05;3.30;;;1.20;;
57567;SDS011;43403;51.948;5.922;2023-08-20T11:33:59;7.47;;;1.35;;
57567;SDS011;43403;51.948;5.922;2023-08-20T11:36:28;6.22;;;1.08;;
57567;SDS011;43403;51.948;5.922;2023-08-20T11:38:54;3.75;;;1.10;;
57567;SDS011;43403;51.948;5.922;2023-08-20T11:41:22;5.95;;;1.10;;
57567;SDS011;43403;51.948;5.922;2023-08-20T11:43:49;8.65;;;1.35;;
57567;SDS011;43403;51.948;5.922;2023-08-20T11:46:17;3.50;;;1.00;;
57567;SDS011;43403;51.948;5.922;2023-08-20T11:49:01;5.03;;;1.20;;
57567;SDS011;43403;51.948;5.922;2023-08-20T11:51:30;5.15;;;1.13;;
57567;SDS011;43403;51.948;5.922;2023-08-20T11:54:02;7.03;;;1.50;;
57567;SDS011;43403;51.948;5.922;2023-08-20T11:56:30;3.00;;;1.60;;
57567;SDS011;43403;51.948;5.922;2023-08-20T11:59:00;2.53;;;0.75;;
57567;SDS011;43403;51.948;5.922;2023-08-20T12:01:31;3.72;;;0.95;;
57567;SDS011;43403;51.948;5.922;2023-08-20T12:04:05;3.85;;;1.10;;
57567;SDS011;43403;51.948;5.922;2023-08-20T12:06:33;3.85;;;0.93;;
57567;SDS011;43403;51.948;5.922;2023-08-20T12:09:01;4.97;;;1.25;;
57567;SDS011;43403;51.948;5.922;2023-08-20T12:11:30;2.80;;;0.98;;
57567;SDS011;43403;51.948;5.922;2023-08-20T12:13:57;4.07;;;1.05;;
57567;SDS011;43403;51.948;5.922;2023-08-20T12:16:24;4.15;;;1.17;;
57567;SDS011;43403;51.948;5.922;2023-08-20T12:18:51;3.85;;;1.10;;
57567;SDS011;43403;51.948;5.922;2023-08-20T12:21:18;5.20;;;1.13;;
57567;SDS011;43403;51.948;5.922;2023-08-20T12:23:45;3.60;;;1.03;;
57567;SDS011;43403;51.948;5.922;2023-08-20T12:26:11;3.03;;;0.90;;
57567;SDS011;43403;51.948;5.922;2023-08-20T12:28:38;5.03;;;1.00;;
57567;SDS011;43403;51.948;5.922;2023-08-20T12:31:04;8.20;;;1.20;;
57567;SDS011;43403;51.948;5.922;2023-08-20T12:33:31;5.18;;;1.25;;
57567;SDS011;43403;51.948;5.922;2023-08-20T12:35:58;4.97;;;1.20;;
57567;SDS011;43403;51.948;5.922;2023-08-20T12:38:24;5.43;;;1.08;;
57567;SDS011;43403;51.948;5.922;2023-08-20T12:40:51;6.72;;;1.38;;
57567;SDS011;43403;51.948;5.922;2023-08-20T12:43:17;2.60;;;1.08;;
57567;SDS011;43403;51.948;5.922;2023-08-20T12:45:43;5.22;;;1.27;;
57567;SDS011;43403;51.948;5.922;2023-08-20T12:48:10;4.22;;;0.90;;
57567;SDS011;43403;51.948;5.922;2023-08-20T12:50:37;4.57;;;1.20;;
57567;SDS011;43403;51.948;5.922;2023-08-20T12:53:03;4.45;;;1.10;;
57567;SDS011;43403;51.948;5.922;2023-08-20T12:55:30;4.63;;;1.08;;
57567;SDS011;43403;51.948;5.922;2023-08-20T12:57:57;3.65;;;1.10;;
57567;SDS011;43403;51.948;5.922;2023-08-20T13:00:24;4.78;;;1.10;;
57567;SDS011;43403;51.948;5.922;2023-08-20T13:05:19;6.00;;;1.25;;
57567;SDS011;43403;51.948;5.922;2023-08-20T13:07:46;5.05;;;1.27;;
57567;SDS011;43403;51.948;5.922;2023-08-20T13:10:12;2.80;;;0.98;;
57567;SDS011;43403;51.948;5.922;2023-08-20T13:12:45;3.17;;;0.95;;
57567;SDS011;43403;51.948;5.922;2023-08-20T13:15:25;4.47;;;1.30;;
57567;SDS011;43403;51.948;5.922;2023-08-20T13:17:52;4.85;;;1.25;;
57567;SDS011;43403;51.948;5.922;2023-08-20T13:20:19;2.93;;;1.17;;
57567;SDS011;43403;51.948;5.922;2023-08-20T13:22:51;2.92;;;1.17;;
57567;SDS011;43403;51.948;5.922;2023-08-20T13:25:18;4.18;;;1.38;;
57567;SDS011;43403;51.948;5.922;2023-08-20T13:27:47;4.22;;;1.20;;
57567;SDS011;43403;51.948;5.922;2023-08-20T13:30:14;4.60;;;1.23;;
57567;SDS011;43403;51.948;5.922;2023-08-20T13:32:41;3.37;;;1.10;;
57567;SDS011;43403;51.948;5.922;2023-08-20T13:35:07;6.80;;;1.73;;
57567;SDS011;43403;51.948;5.922;2023-08-20T13:37:34;3.25;;;1.15;;
57567;SDS011;43403;51.948;5.922;2023-08-20T13:40:01;3.50;;;1.10;;
57567;SDS011;43403;51.948;5.922;2023-08-20T13:42:30;2.97;;;0.95;;
57567;SDS011;43403;51.948;5.922;2023-08-20T13:44:56;7.63;;;1.40;;
57567;SDS011;43403;51.948;5.922;2023-08-20T13:47:22;4.43;;;1.05;;
57567;SDS011;43403;51.948;5.922;2023-08-20T13:49:49;3.58;;;1.08;;
57567;SDS011;43403;51.948;5.922;2023-08-20T13:52:15;4.95;;;1.20;;
57567;SDS011;43403;51.948;5.922;2023-08-20T13:54:42;3.17;;;0.93;;
57567;SDS011;43403;51.948;5.922;2023-08-20T13:57:09;4.03;;;1.00;;
57567;SDS011;43403;51.948;5.922;2023-08-20T13:59:35;5.03;;;1.40;;
57567;SDS011;43403;51.948;5.922;2023-08-20T14:02:02;2.10;;;1.08;;
57567;SDS011;43403;51.948;5.922;2023-08-20T14:04:28;3.72;;;1.10;;
57567;SDS011;43403;51.948;5.922;2023-08-20T14:06:55;4.13;;;1.00;;
57567;SDS011;43403;51.948;5.922;2023-08-20T14:09:22;3.30;;;1.08;;
57567;SDS011;43403;51.948;5.922;2023-08-20T14:11:48;2.80;;;1.08;;
57567;SDS011;43403;51.948;5.922;2023-08-20T14:14:15;3.80;;;1.23;;
57567;SDS011;43403;51.948;5.922;2023-08-20T14:16:41;5.00;;;1.20;;
57567;SDS011;43403;51.948;5.922;2023-08-20T14:19:07;4.10;;;1.35;;
57567;SDS011;43403;51.948;5.922;2023-08-20T14:21:34;7.87;;;1.33;;
57567;SDS011;43403;51.948;5.922;2023-08-20T14:24:01;4.07;;;1.00;;
57567;SDS011;43403;51.948;5.922;2023-08-20T14:26:27;3.20;;;1.10;;
57567;SDS011;43403;51.948;5.922;2023-08-20T14:28:53;7.25;;;1.33;;
57567;SDS011;43403;51.948;5.922;2023-08-20T14:31:20;6.07;;;1.40;;
57567;SDS011;43403;51.948;5.922;2023-08-20T14:33:46;5.85;;;1.20;;
57567;SDS011;43403;51.948;5.922;2023-08-20T14:36:13;6.90;;;1.98;;
57567;SDS011;43403;51.948;5.922;2023-08-20T14:38:39;5.13;;;1.30;;
57567;SDS011;43403;51.948;5.922;2023-08-20T14:41:06;3.88;;;1.20;;
57567;SDS011;43403;51.948;5.922;2023-08-20T14:43:32;3.97;;;1.13;;
57567;SDS011;43403;51.948;5.922;2023-08-20T14:45:59;5.32;;;1.25;;
57567;SDS011;43403;51.948;5.922;2023-08-20T14:48:25;3.08;;;0.90;;
57567;SDS011;43403;51.948;5.922;2023-08-20T14:50:52;5.47;;;1.30;;
57567;SDS011;43403;51.948;5.922;2023-08-20T14:53:18;4.57;;;1.08;;
57567;SDS011;43403;51.948;5.922;2023-08-20T14:55:45;4.63;;;1.45;;
57567;SDS011;43403;51.948;5.922;2023-08-20T14:58:12;7.40;;;1.60;;
57567;SDS011;43403;51.948;5.922;2023-08-20T15:00:39;4.40;;;1.20;;
57567;SDS011;43403;51.948;5.922;2023-08-20T15:03:05;4.53;;;1.20;;
57567;SDS011;43403;51.948;5.922;2023-08-20T15:05:33;4.03;;;0.95;;
57567;SDS011;43403;51.948;5.922;2023-08-20T15:07:59;4.43;;;1.30;;
57567;SDS011;43403;51.948;5.922;2023-08-20T15:10:25;2.83;;;0.98;;
57567;SDS011;43403;51.948;5.922;2023-08-20T15:12:52;4.35;;;1.20;;